sensor_id;sensor_type;location;lat;lon;timestamp;pressure;altitude;pressure_sealevel;temperature;humidity
74334;BME280;62753;40.394;-80.022;2023-06-22T00:02:16;97720.46;;;22.07;37.90
74334;BME280;62753;40.394;-80.022;2023-06-22T00:04:40;97719.76;;;22.79;37.56
74334;BME280;62753;40.394;-80.022;2023-06-22T00:07:06;97720.16;;;23.09;36.31
74334;BME280;62753;40.394;-80.022;2023-06-22T00:09:31;97720.96;;;23.23;35.83
74334;BME280;62753;40.394;-80.022;2023-06-22T00:11:56;97716.00;;;22.61;36.34
74334;BME280;62753;40.394;-80.022;2023-06-22T00:14:22;97723.48;;;23.35;35.12
74334;BME280;62753;40.394;-80.022;2023-06-22T00:16:47;97723.25;;;23.14;35.47
74334;BME280;62753;40.394;-80.022;2023-06-22T00:19:12;97724.30;;;23.24;35.63
74334;BME280;62753;40.394;-80.022;2023-06-22T00:21:37;97724.20;;;22.97;35.46
74334;BME280;62753;40.394;-80.022;2023-06-22T00:24:02;97723.08;;;22.77;36.50
74334;BME280;62753;40.394;-80.022;2023-06-22T00:26:27;97719.59;;;22.20;36.82
74334;BME280;62753;40.394;-80.022;2023-06-22T00:28:53;97723.62;;;22.87;36.33
74334;BME280;62753;40.394;-80.022;2023-06-22T00:31:18;97725.72;;;23.59;34.84
74334;BME280;62753;40.394;-80.022;2023-06-22T00:33:43;97719.90;;;22.99;35.95
74334;BME280;62753;40.394;-80.022;2023-06-22T00:36:09;97722.17;;;22.73;36.46
74334;BME280;62753;40.394;-80.022;2023-06-22T00:38:33;97721.00;;;22.38;36.52
74334;BME280;62753;40.394;-80.022;2023-06-22T00:40:58;97717.50;;;22.36;36.82
74334;BME280;62753;40.394;-80.022;2023-06-22T00:43:24;97715.37;;;22.65;36.10
74334;BME280;62753;40.394;-80.022;2023-06-22T00:45:49;97716.67;;;23.16;35.51
74334;BME280;62753;40.394;-80.022;2023-06-22T00:48:15;97718.78;;;22.93;35.41
74334;BME280;62753;40.394;-80.022;2023-06-22T00:50:40;97722.60;;;23.65;34.66
74334;BME280;62753;40.394;-80.022;2023-06-22T00:53:07;97718.40;;;23.81;33.95
74334;BME280;62753;40.394;-80.022;2023-06-22T00:55:30;97723.84;;;23.41;34.35
74334;BME280;62753;40.394;-80.022;2023-06-22T00:57:55;97727.43;;;23.43;34.71
74334;BME280;62753;40.394;-80.022;2023-06-22T01:00:21;97722.10;;;23.13;35.56
74334;BME280;62753;40.394;-80.022;2023-06-22T01:02:46;97725.15;;;23.16;35.22
74334;BME280;62753;40.394;-80.022;2023-06-22T01:05:11;97729.20;;;22.55;35.07
74334;BME280;62753;40.394;-80.022;2023-06-22T01:07:42;97731.80;;;22.36;36.67
74334;BME280;62753;40.394;-80.022;2023-06-22T01:10:07;97733.95;;;22.77;36.12
74334;BME280;62753;40.394;-80.022;2023-06-22T01:12:30;97736.98;;;22.60;36.55
74334;BME280;62753;40.394;-80.022;2023-06-22T01:14:56;97735.56;;;22.44;36.48
74334;BME280;62753;40.394;-80.022;2023-06-22T01:17:18;97742.27;;;21.83;37.41
74334;BME280;62753;40.394;-80.022;2023-06-22T01:19:46;97742.19;;;22.98;36.21
74334;BME280;62753;40.394;-80.022;2023-06-22T01:22:09;97747.52;;;23.24;35.33
74334;BME280;62753;40.394;-80.022;2023-06-22T01:24:41;97743.47;;;23.26;35.35
74334;BME280;62753;40.394;-80.022;2023-06-22T01:27:09;97746.23;;;23.33;35.34
74334;BME280;62753;40.394;-80.022;2023-06-22T01:29:27;97749.11;;;21.73;37.31
74334;BME280;62753;40.394;-80.022;2023-06-22T01:31:50;97746.56;;;22.67;36.43
74334;BME280;62753;40.394;-80.022;2023-06-22T01:34:16;97747.97;;;22.27;37.14
74334;BME280;62753;40.394;-80.022;2023-06-22T01:36:40;97753.08;;;21.98;37.82
74334;BME280;62753;40.394;-80.022;2023-06-22T01:39:06;97751.29;;;21.51;38.68
74334;BME280;62753;40.394;-80.022;2023-06-22T01:41:35;97760.64;;;21.90;38.94
74334;BME280;62753;40.394;-80.022;2023-06-22T01:43:56;97761.54;;;22.08;38.36
74334;BME280;62753;40.394;-80.022;2023-06-22T01:46:21;97769.56;;;21.87;39.17
74334;BME280;62753;40.394;-80.022;2023-06-22T01:48:47;97767.50;;;21.84;39.39
74334;BME280;62753;40.394;-80.022;2023-06-22T01:51:12;97773.59;;;22.19;38.84
74334;BME280;62753;40.394;-80.022;2023-06-22T01:53:37;97776.21;;;21.64;40.26
74334;BME280;62753;40.394;-80.022;2023-06-22T01:56:02;97780.10;;;21.14;41.46
74334;BME280;62753;40.394;-80.022;2023-06-22T01:58:29;97779.52;;;20.96;41.75
74334;BME280;62753;40.394;-80.022;2023-06-22T02:00:56;97781.36;;;20.77;42.35
74334;BME280;62753;40.394;-80.022;2023-06-22T02:03:21;97782.67;;;21.08;41.77
74334;BME280;62753;40.394;-80.022;2023-06-22T02:05:50;97787.95;;;21.58;41.00
74334;BME280;62753;40.394;-80.022;2023-06-22T02:08:11;97789.31;;;20.53;43.04
74334;BME280;62753;40.394;-80.022;2023-06-22T02:10:36;97789.86;;;21.42;43.07
74334;BME280;62753;40.394;-80.022;2023-06-22T02:13:02;97794.76;;;21.18;43.77
74334;BME280;62753;40.394;-80.022;2023-06-22T02:15:26;97796.85;;;20.50;46.42
74334;BME280;62753;40.394;-80.022;2023-06-22T02:17:51;97799.91;;;20.41;47.92
74334;BME280;62753;40.394;-80.022;2023-06-22T02:20:16;97802.52;;;19.89;48.84
74334;BME280;62753;40.394;-80.022;2023-06-22T02:22:41;97806.38;;;19.92;49.79
74334;BME280;62753;40.394;-80.022;2023-06-22T02:25:07;97796.22;;;18.74;50.71
74334;BME280;62753;40.394;-80.022;2023-06-22T02:27:31;97792.15;;;18.77;52.20
74334;BME280;62753;40.394;-80.022;2023-06-22T02:29:57;97794.27;;;18.67;53.19
74334;BME280;62753;40.394;-80.022;2023-06-22T02:32:22;97797.90;;;18.10;53.89
74334;BME280;62753;40.394;-80.022;2023-06-22T02:34:47;97801.39;;;18.41;53.93
74334;BME280;62753;40.394;-80.022;2023-06-22T02:37:13;97800.84;;;17.78;55.32
74334;BME280;62753;40.394;-80.022;2023-06-22T02:39:38;97802.45;;;18.16;54.16
74334;BME280;62753;40.394;-80.022;2023-06-22T02:42:04;97796.46;;;18.77;52.91
74334;BME280;62753;40.394;-80.022;2023-06-22T02:44:28;97796.16;;;18.05;53.83
74334;BME280;62753;40.394;-80.022;2023-06-22T02:46:53;97799.29;;;17.96;56.00
74334;BME280;62753;40.394;-80.022;2023-06-22T02:49:19;97800.80;;;18.61;54.65
74334;BME280;62753;40.394;-80.022;2023-06-22T02:51:46;97801.98;;;18.42;54.53
74334;BME280;62753;40.394;-80.022;2023-06-22T02:54:09;97802.66;;;18.04;55.83
74334;BME280;62753;40.394;-80.022;2023-06-22T02:56:35;97805.09;;;18.49;54.70
74334;BME280;62753;40.394;-80.022;2023-06-22T02:59:00;97803.11;;;18.81;54.38
74334;BME280;62753;40.394;-80.022;2023-06-22T03:01:26;97799.47;;;18.86;54.08
74334;BME280;62753;40.394;-80.022;2023-06-22T03:03:55;97794.19;;;19.08;53.77
74334;BME280;62753;40.394;-80.022;2023-06-22T03:06:16;97795.34;;;19.60;52.12
74334;BME280;62753;40.394;-80.022;2023-06-22T03:08:41;97794.84;;;19.32;52.32
74334;BME280;62753;40.394;-80.022;2023-06-22T03:11:06;97790.23;;;18.75;52.83
74334;BME280;62753;40.394;-80.022;2023-06-22T03:13:31;97790.91;;;18.76;53.30
74334;BME280;62753;40.394;-80.022;2023-06-22T03:15:57;97792.59;;;19.14;52.45
74334;BME280;62753;40.394;-80.022;2023-06-22T03:18:23;97792.85;;;19.75;51.22
74334;BME280;62753;40.394;-80.022;2023-06-22T03:20:48;97785.43;;;18.68;52.99
74334;BME280;62753;40.394;-80.022;2023-06-22T03:23:14;97788.65;;;19.75;51.27
74334;BME280;62753;40.394;-80.022;2023-06-22T03:25:38;97789.99;;;19.76;51.28
74334;BME280;62753;40.394;-80.022;2023-06-22T03:28:04;97784.43;;;19.07;52.15
74334;BME280;62753;40.394;-80.022;2023-06-22T03:30:29;97783.51;;;19.62;51.42
74334;BME280;62753;40.394;-80.022;2023-06-22T03:32:54;97783.12;;;19.82;50.78
74334;BME280;62753;40.394;-80.022;2023-06-22T03:35:19;97783.22;;;19.82;50.29
74334;BME280;62753;40.394;-80.022;2023-06-22T03:37:45;97777.82;;;19.17;52.86
74334;BME280;62753;40.394;-80.022;2023-06-22T03:40:11;97783.31;;;19.61;51.80
74334;BME280;62753;40.394;-80.022;2023-06-22T03:42:36;97788.87;;;19.57;52.10
74334;BME280;62753;40.394;-80.022;2023-06-22T03:45:01;97786.39;;;19.25;52.97
74334;BME280;62753;40.394;-80.022;2023-06-22T03:47:26;97785.56;;;19.82;51.37
74334;BME280;62753;40.394;-80.022;2023-06-22T03:49:51;97787.89;;;20.28;50.84
74334;BME280;62753;40.394;-80.022;2023-06-22T03:52:16;97788.21;;;20.06;51.61
74334;BME280;62753;40.394;-80.022;2023-06-22T03:54:42;97794.46;;;19.94;52.01
74334;BME280;62753;40.394;-80.022;2023-06-22T03:57:07;97793.25;;;19.89;52.09
74334;BME280;62753;40.394;-80.022;2023-06-22T03:59:32;97789.30;;;19.35;51.45
74334;BME280;62753;40.394;-80.022;2023-06-22T04:01:57;97787.40;;;19.99;50.30
74334;BME280;62753;40.394;-80.022;2023-06-22T04:04:23;97786.00;;;19.79;50.59
74334;BME280;62753;40.394;-80.022;2023-06-22T04:06:48;97785.20;;;20.09;49.68
74334;BME280;62753;40.394;-80.022;2023-06-22T04:09:13;97786.84;;;20.83;48.67
74334;BME280;62753;40.394;-80.022;2023-06-22T04:11:38;97790.51;;;19.37;50.86
74334;BME280;62753;40.394;-80.022;2023-06-22T04:14:04;97785.07;;;20.51;49.00
74334;BME280;62753;40.394;-80.022;2023-06-22T04:16:29;97787.24;;;19.92;50.83
74334;BME280;62753;40.394;-80.022;2023-06-22T04:18:54;97776.72;;;20.68;49.06
74334;BME280;62753;40.394;-80.022;2023-06-22T04:21:20;97775.73;;;21.33;47.20
74334;BME280;62753;40.394;-80.022;2023-06-22T04:23:46;97772.92;;;20.55;48.22
74334;BME280;62753;40.394;-80.022;2023-06-22T04:26:11;97773.26;;;20.87;48.11
74334;BME280;62753;40.394;-80.022;2023-06-22T04:28:36;97773.62;;;20.71;48.62
74334;BME280;62753;40.394;-80.022;2023-06-22T04:31:01;97772.19;;;20.31;49.23
74334;BME280;62753;40.394;-80.022;2023-06-22T04:33:26;97770.38;;;20.66;47.99
74334;BME280;62753;40.394;-80.022;2023-06-22T04:35:51;97773.69;;;20.02;50.98
74334;BME280;62753;40.394;-80.022;2023-06-22T04:38:17;97771.61;;;19.50;52.49
74334;BME280;62753;40.394;-80.022;2023-06-22T04:40:42;97765.39;;;19.56;51.13
74334;BME280;62753;40.394;-80.022;2023-06-22T04:43:07;97766.44;;;19.26;51.74
74334;BME280;62753;40.394;-80.022;2023-06-22T04:45:33;97767.87;;;18.81;53.13
74334;BME280;62753;40.394;-80.022;2023-06-22T04:47:58;97770.13;;;19.23;53.16
74334;BME280;62753;40.394;-80.022;2023-06-22T04:50:23;97764.95;;;20.19;51.82
74334;BME280;62753;40.394;-80.022;2023-06-22T04:52:49;97763.30;;;19.74;52.67
74334;BME280;62753;40.394;-80.022;2023-06-22T04:55:15;97762.47;;;19.69;52.65
74334;BME280;62753;40.394;-80.022;2023-06-22T04:57:39;97763.11;;;19.43;52.69
74334;BME280;62753;40.394;-80.022;2023-06-22T05:00:06;97761.16;;;19.47;52.81
74334;BME280;62753;40.394;-80.022;2023-06-22T05:02:29;97754.14;;;19.25;52.95
74334;BME280;62753;40.394;-80.022;2023-06-22T05:04:55;97753.58;;;19.28;53.82
74334;BME280;62753;40.394;-80.022;2023-06-22T05:07:20;97747.17;;;19.38;53.73
74334;BME280;62753;40.394;-80.022;2023-06-22T05:09:46;97742.15;;;19.12;53.27
74334;BME280;62753;40.394;-80.022;2023-06-22T05:12:11;97734.97;;;18.81;54.65
74334;BME280;62753;40.394;-80.022;2023-06-22T05:14:36;97735.55;;;19.27;53.12
74334;BME280;62753;40.394;-80.022;2023-06-22T05:17:01;97729.22;;;19.12;53.79
74334;BME280;62753;40.394;-80.022;2023-06-22T05:19:26;97722.42;;;19.15;53.67
74334;BME280;62753;40.394;-80.022;2023-06-22T05:21:52;97721.19;;;17.32;57.11
74334;BME280;62753;40.394;-80.022;2023-06-22T05:24:17;97713.83;;;17.49;56.17
74334;BME280;62753;40.394;-80.022;2023-06-22T05:26:42;97710.90;;;17.33;58.08
74334;BME280;62753;40.394;-80.022;2023-06-22T05:29:08;97712.32;;;17.81;57.67
74334;BME280;62753;40.394;-80.022;2023-06-22T05:31:33;97709.29;;;16.94;59.70
74334;BME280;62753;40.394;-80.022;2023-06-22T05:33:58;97710.26;;;17.11;59.53
74334;BME280;62753;40.394;-80.022;2023-06-22T05:36:23;97709.06;;;16.97;59.24
74334;BME280;62753;40.394;-80.022;2023-06-22T05:38:48;97710.48;;;16.38;60.96
74334;BME280;62753;40.394;-80.022;2023-06-22T05:41:14;97712.62;;;16.17;61.09
74334;BME280;62753;40.394;-80.022;2023-06-22T05:43:39;97706.15;;;16.64;60.21
74334;BME280;62753;40.394;-80.022;2023-06-22T05:46:05;97706.74;;;16.89;60.11
74334;BME280;62753;40.394;-80.022;2023-06-22T05:48:30;97709.30;;;17.48;59.00
74334;BME280;62753;40.394;-80.022;2023-06-22T05:50:55;97705.29;;;17.45;58.34
74334;BME280;62753;40.394;-80.022;2023-06-22T05:53:20;97703.28;;;17.50;57.20
74334;BME280;62753;40.394;-80.022;2023-06-22T05:55:46;97699.74;;;17.69;55.82
74334;BME280;62753;40.394;-80.022;2023-06-22T05:58:11;97697.04;;;17.74;56.89
74334;BME280;62753;40.394;-80.022;2023-06-22T06:00:37;97692.57;;;18.07;55.59
74334;BME280;62753;40.394;-80.022;2023-06-22T06:03:02;97687.80;;;17.73;56.92
74334;BME280;62753;40.394;-80.022;2023-06-22T06:05:27;97687.41;;;17.65;57.15
74334;BME280;62753;40.394;-80.022;2023-06-22T06:07:52;97686.45;;;17.01;58.96
74334;BME280;62753;40.394;-80.022;2023-06-22T06:10:18;97681.53;;;17.20;57.51
74334;BME280;62753;40.394;-80.022;2023-06-22T06:12:43;97678.29;;;17.54;56.73
74334;BME280;62753;40.394;-80.022;2023-06-22T06:15:09;97681.51;;;18.45;55.82
74334;BME280;62753;40.394;-80.022;2023-06-22T06:17:34;97675.16;;;17.26;57.74
74334;BME280;62753;40.394;-80.022;2023-06-22T06:20:00;97672.70;;;17.33;56.54
74334;BME280;62753;40.394;-80.022;2023-06-22T06:22:24;97667.93;;;18.19;55.22
74334;BME280;62753;40.394;-80.022;2023-06-22T06:24:50;97663.10;;;17.96;55.29
74334;BME280;62753;40.394;-80.022;2023-06-22T06:27:15;97665.75;;;17.99;55.20
74334;BME280;62753;40.394;-80.022;2023-06-22T06:29:40;97669.32;;;18.24;53.41
74334;BME280;62753;40.394;-80.022;2023-06-22T06:32:06;97665.91;;;19.11;52.19
74334;BME280;62753;40.394;-80.022;2023-06-22T06:34:31;97663.93;;;18.83;52.64
74334;BME280;62753;40.394;-80.022;2023-06-22T06:36:56;97667.01;;;18.67;51.98
74334;BME280;62753;40.394;-80.022;2023-06-22T06:39:21;97665.33;;;17.73;53.91
74334;BME280;62753;40.394;-80.022;2023-06-22T06:41:46;97667.07;;;17.96;54.28
74334;BME280;62753;40.394;-80.022;2023-06-22T06:44:12;97663.35;;;17.37;56.34
74334;BME280;62753;40.394;-80.022;2023-06-22T06:46:37;97659.59;;;17.52;57.16
74334;BME280;62753;40.394;-80.022;2023-06-22T06:49:02;97659.71;;;17.15;56.68
74334;BME280;62753;40.394;-80.022;2023-06-22T06:51:27;97655.13;;;16.89;57.26
74334;BME280;62753;40.394;-80.022;2023-06-22T06:53:53;97653.23;;;17.62;55.73
74334;BME280;62753;40.394;-80.022;2023-06-22T06:56:18;97650.31;;;17.83;53.99
74334;BME280;62753;40.394;-80.022;2023-06-22T06:58:43;97648.50;;;18.55;53.32
74334;BME280;62753;40.394;-80.022;2023-06-22T07:01:09;97646.29;;;17.46;54.64
74334;BME280;62753;40.394;-80.022;2023-06-22T07:03:34;97645.25;;;18.02;54.02
74334;BME280;62753;40.394;-80.022;2023-06-22T07:06:00;97645.08;;;18.48;53.64
74334;BME280;62753;40.394;-80.022;2023-06-22T07:08:25;97641.41;;;17.98;54.30
74334;BME280;62753;40.394;-80.022;2023-06-22T07:10:50;97639.01;;;17.56;54.39
74334;BME280;62753;40.394;-80.022;2023-06-22T07:13:15;97637.51;;;18.27;53.52
74334;BME280;62753;40.394;-80.022;2023-06-22T07:15:41;97640.95;;;18.36;52.98
74334;BME280;62753;40.394;-80.022;2023-06-22T07:18:06;97640.65;;;18.22;53.20
74334;BME280;62753;40.394;-80.022;2023-06-22T07:20:31;97638.03;;;18.01;53.97
74334;BME280;62753;40.394;-80.022;2023-06-22T07:22:57;97638.71;;;18.26;53.30
74334;BME280;62753;40.394;-80.022;2023-06-22T07:25:22;97637.84;;;18.41;52.81
74334;BME280;62753;40.394;-80.022;2023-06-22T07:27:57;97632.73;;;17.89;53.22
74334;BME280;62753;40.394;-80.022;2023-06-22T07:30:13;97632.41;;;17.78;53.64
74334;BME280;62753;40.394;-80.022;2023-06-22T07:32:38;97632.05;;;17.62;54.06
74334;BME280;62753;40.394;-80.022;2023-06-22T07:35:04;97638.37;;;18.70;52.74
74334;BME280;62753;40.394;-80.022;2023-06-22T07:37:29;97633.67;;;18.34;52.45
74334;BME280;62753;40.394;-80.022;2023-06-22T07:39:54;97630.91;;;17.71;53.48
74334;BME280;62753;40.394;-80.022;2023-06-22T07:42:19;97630.33;;;17.52;54.12
74334;BME280;62753;40.394;-80.022;2023-06-22T07:44:44;97629.84;;;18.69;52.50
74334;BME280;62753;40.394;-80.022;2023-06-22T07:47:10;97632.29;;;18.54;52.05
74334;BME280;62753;40.394;-80.022;2023-06-22T07:49:35;97628.36;;;18.52;52.38
74334;BME280;62753;40.394;-80.022;2023-06-22T07:52:00;97620.48;;;18.39;51.59
74334;BME280;62753;40.394;-80.022;2023-06-22T07:54:26;97616.76;;;18.44;52.54
74334;BME280;62753;40.394;-80.022;2023-06-22T07:56:51;97613.66;;;18.98;50.72
74334;BME280;62753;40.394;-80.022;2023-06-22T07:59:16;97610.35;;;19.41;49.69
74334;BME280;62753;40.394;-80.022;2023-06-22T08:01:41;97609.60;;;18.85;51.05
74334;BME280;62753;40.394;-80.022;2023-06-22T08:04:07;97611.87;;;18.34;51.74
74334;BME280;62753;40.394;-80.022;2023-06-22T08:06:32;97611.61;;;18.88;51.80
74334;BME280;62753;40.394;-80.022;2023-06-22T08:08:57;97610.49;;;18.53;51.69
74334;BME280;62753;40.394;-80.022;2023-06-22T08:11:23;97603.71;;;18.38;52.37
74334;BME280;62753;40.394;-80.022;2023-06-22T08:13:48;97603.72;;;18.14;52.63
74334;BME280;62753;40.394;-80.022;2023-06-22T08:16:13;97601.00;;;18.18;52.78
74334;BME280;62753;40.394;-80.022;2023-06-22T08:18:38;97600.37;;;18.77;51.66
74334;BME280;62753;40.394;-80.022;2023-06-22T08:21:03;97603.82;;;18.15;52.40
74334;BME280;62753;40.394;-80.022;2023-06-22T08:23:29;97599.43;;;18.58;51.68
74334;BME280;62753;40.394;-80.022;2023-06-22T08:25:55;97603.55;;;18.32;53.07
74334;BME280;62753;40.394;-80.022;2023-06-22T08:28:20;97596.61;;;18.11;52.92
74334;BME280;62753;40.394;-80.022;2023-06-22T08:30:45;97589.20;;;18.29;52.66
74334;BME280;62753;40.394;-80.022;2023-06-22T08:33:11;97588.10;;;18.57;51.92
74334;BME280;62753;40.394;-80.022;2023-06-22T08:35:36;97578.94;;;18.76;51.41
74334;BME280;62753;40.394;-80.022;2023-06-22T08:38:01;97575.45;;;18.15;52.64
74334;BME280;62753;40.394;-80.022;2023-06-22T08:40:26;97570.44;;;17.30;55.18
74334;BME280;62753;40.394;-80.022;2023-06-22T08:42:52;97578.31;;;17.00;56.34
74334;BME280;62753;40.394;-80.022;2023-06-22T08:45:17;97578.87;;;17.11;57.12
74334;BME280;62753;40.394;-80.022;2023-06-22T08:47:42;97582.24;;;16.75;58.26
74334;BME280;62753;40.394;-80.022;2023-06-22T08:50:08;97581.91;;;17.11;57.07
74334;BME280;62753;40.394;-80.022;2023-06-22T08:52:32;97584.20;;;17.15;56.66
74334;BME280;62753;40.394;-80.022;2023-06-22T08:54:58;97589.31;;;17.39;54.55
74334;BME280;62753;40.394;-80.022;2023-06-22T08:57:23;97598.38;;;17.53;56.54
74334;BME280;62753;40.394;-80.022;2023-06-22T08:59:48;97602.05;;;17.75;54.17
74334;BME280;62753;40.394;-80.022;2023-06-22T09:02:14;97602.37;;;17.52;55.36
74334;BME280;62753;40.394;-80.022;2023-06-22T09:04:39;97600.57;;;17.37;56.06
74334;BME280;62753;40.394;-80.022;2023-06-22T09:07:05;97608.14;;;17.83;54.73
74334;BME280;62753;40.394;-80.022;2023-06-22T09:09:29;97607.28;;;17.10;56.08
74334;BME280;62753;40.394;-80.022;2023-06-22T09:11:55;97608.21;;;17.48;55.75
74334;BME280;62753;40.394;-80.022;2023-06-22T09:14:20;97609.89;;;17.48;55.43
74334;BME280;62753;40.394;-80.022;2023-06-22T09:16:46;97612.72;;;17.72;54.96
74334;BME280;62753;40.394;-80.022;2023-06-22T09:19:11;97612.08;;;17.88;55.10
74334;BME280;62753;40.394;-80.022;2023-06-22T09:21:37;97614.15;;;17.83;54.07
74334;BME280;62753;40.394;-80.022;2023-06-22T09:24:01;97610.91;;;17.94;54.21
74334;BME280;62753;40.394;-80.022;2023-06-22T09:26:27;97617.71;;;17.81;53.62
74334;BME280;62753;40.394;-80.022;2023-06-22T09:28:52;97621.68;;;17.90;53.79
74334;BME280;62753;40.394;-80.022;2023-06-22T09:31:17;97625.22;;;17.81;54.13
74334;BME280;62753;40.394;-80.022;2023-06-22T09:33:43;97626.87;;;17.94;54.61
74334;BME280;62753;40.394;-80.022;2023-06-22T09:36:08;97623.07;;;18.04;54.51
74334;BME280;62753;40.394;-80.022;2023-06-22T09:38:35;97625.24;;;17.87;53.45
74334;BME280;62753;40.394;-80.022;2023-06-22T09:40:59;97622.03;;;17.94;53.75
74334;BME280;62753;40.394;-80.022;2023-06-22T09:43:23;97616.44;;;17.74;54.13
74334;BME280;62753;40.394;-80.022;2023-06-22T09:45:49;97615.84;;;18.15;53.17
74334;BME280;62753;40.394;-80.022;2023-06-22T09:48:14;97622.58;;;18.06;53.29
74334;BME280;62753;40.394;-80.022;2023-06-22T09:50:39;97623.07;;;17.00;55.88
74334;BME280;62753;40.394;-80.022;2023-06-22T09:53:05;97626.84;;;17.91;54.27
74334;BME280;62753;40.394;-80.022;2023-06-22T09:55:31;97632.41;;;17.85;53.30
74334;BME280;62753;40.394;-80.022;2023-06-22T09:57:56;97634.04;;;17.40;55.28
74334;BME280;62753;40.394;-80.022;2023-06-22T10:00:21;97639.26;;;18.28;53.05
74334;BME280;62753;40.394;-80.022;2023-06-22T10:02:47;97638.89;;;18.21;53.47
74334;BME280;62753;40.394;-80.022;2023-06-22T10:05:12;97642.05;;;17.93;53.62
74334;BME280;62753;40.394;-80.022;2023-06-22T10:07:37;97639.50;;;17.71;53.72
74334;BME280;62753;40.394;-80.022;2023-06-22T10:10:02;97639.48;;;17.91;53.64
74334;BME280;62753;40.394;-80.022;2023-06-22T10:12:27;97635.07;;;17.95;53.51
74334;BME280;62753;40.394;-80.022;2023-06-22T10:14:53;97635.93;;;18.50;52.57
74334;BME280;62753;40.394;-80.022;2023-06-22T10:17:18;97640.00;;;18.20;52.39
74334;BME280;62753;40.394;-80.022;2023-06-22T10:19:43;97642.25;;;18.51;52.53
74334;BME280;62753;40.394;-80.022;2023-06-22T10:22:08;97639.12;;;18.05;52.23
74334;BME280;62753;40.394;-80.022;2023-06-22T10:24:34;97636.27;;;18.48;52.67
74334;BME280;62753;40.394;-80.022;2023-06-22T10:26:59;97632.79;;;17.95;53.83
74334;BME280;62753;40.394;-80.022;2023-06-22T10:29:24;97629.80;;;17.98;54.30
74334;BME280;62753;40.394;-80.022;2023-06-22T10:31:50;97635.03;;;18.52;52.65
74334;BME280;62753;40.394;-80.022;2023-06-22T10:34:15;97629.82;;;17.64;54.00
74334;BME280;62753;40.394;-80.022;2023-06-22T10:36:40;97635.65;;;18.26;53.15
74334;BME280;62753;40.394;-80.022;2023-06-22T10:39:05;97638.83;;;18.98;52.23
74334;BME280;62753;40.394;-80.022;2023-06-22T10:41:31;97641.37;;;18.18;53.06
74334;BME280;62753;40.394;-80.022;2023-06-22T10:43:56;97637.47;;;17.84;54.41
74334;BME280;62753;40.394;-80.022;2023-06-22T10:46:21;97633.43;;;17.94;54.06
74334;BME280;62753;40.394;-80.022;2023-06-22T10:48:47;97636.42;;;17.48;55.60
74334;BME280;62753;40.394;-80.022;2023-06-22T10:51:12;97635.80;;;17.77;55.37
74334;BME280;62753;40.394;-80.022;2023-06-22T10:53:37;97639.65;;;17.39;56.44
74334;BME280;62753;40.394;-80.022;2023-06-22T10:56:03;97637.53;;;17.77;55.53
74334;BME280;62753;40.394;-80.022;2023-06-22T10:58:28;97635.64;;;17.72;54.86
74334;BME280;62753;40.394;-80.022;2023-06-22T11:00:53;97632.96;;;18.16;54.12
74334;BME280;62753;40.394;-80.022;2023-06-22T11:03:18;97626.24;;;17.94;54.66
74334;BME280;62753;40.394;-80.022;2023-06-22T11:05:44;97623.13;;;17.59;55.94
74334;BME280;62753;40.394;-80.022;2023-06-22T11:08:09;97624.64;;;17.69;54.97
74334;BME280;62753;40.394;-80.022;2023-06-22T11:10:34;97623.42;;;17.64;55.16
74334;BME280;62753;40.394;-80.022;2023-06-22T11:12:59;97628.11;;;18.21;54.50
74334;BME280;62753;40.394;-80.022;2023-06-22T11:15:25;97631.50;;;18.31;53.57
74334;BME280;62753;40.394;-80.022;2023-06-22T11:17:50;97635.53;;;18.49;53.44
74334;BME280;62753;40.394;-80.022;2023-06-22T11:20:15;97632.20;;;17.98;54.80
74334;BME280;62753;40.394;-80.022;2023-06-22T11:22:41;97635.74;;;18.36;53.64
74334;BME280;62753;40.394;-80.022;2023-06-22T11:25:07;97633.81;;;18.18;55.14
74334;BME280;62753;40.394;-80.022;2023-06-22T11:27:32;97639.03;;;18.14;54.37
74334;BME280;62753;40.394;-80.022;2023-06-22T11:29:57;97635.42;;;18.12;54.40
74334;BME280;62753;40.394;-80.022;2023-06-22T11:32:22;97631.29;;;18.14;54.79
74334;BME280;62753;40.394;-80.022;2023-06-22T11:34:47;97631.28;;;18.38;53.81
74334;BME280;62753;40.394;-80.022;2023-06-22T11:37:13;97628.30;;;17.86;55.28
74334;BME280;62753;40.394;-80.022;2023-06-22T11:39:38;97628.55;;;17.90;54.95
74334;BME280;62753;40.394;-80.022;2023-06-22T11:42:03;97630.63;;;18.53;53.28
74334;BME280;62753;40.394;-80.022;2023-06-22T11:44:28;97632.45;;;18.53;53.33
74334;BME280;62753;40.394;-80.022;2023-06-22T11:46:54;97638.80;;;18.24;53.97
74334;BME280;62753;40.394;-80.022;2023-06-22T11:49:19;97640.05;;;18.58;52.84
74334;BME280;62753;40.394;-80.022;2023-06-22T11:51:45;97643.49;;;18.77;52.96
74334;BME280;62753;40.394;-80.022;2023-06-22T11:54:10;97644.73;;;17.69;54.50
74334;BME280;62753;40.394;-80.022;2023-06-22T11:56:36;97642.72;;;17.83;54.84
74334;BME280;62753;40.394;-80.022;2023-06-22T11:59:01;97645.50;;;18.69;53.51
74334;BME280;62753;40.394;-80.022;2023-06-22T12:01:26;97644.53;;;18.44;53.92
74334;BME280;62753;40.394;-80.022;2023-06-22T12:03:51;97650.08;;;18.74;53.04
74334;BME280;62753;40.394;-80.022;2023-06-22T12:06:17;97654.00;;;18.33;54.00
74334;BME280;62753;40.394;-80.022;2023-06-22T12:08:42;97649.70;;;17.75;55.29
74334;BME280;62753;40.394;-80.022;2023-06-22T12:11:07;97649.14;;;18.46;54.32
74334;BME280;62753;40.394;-80.022;2023-06-22T12:13:32;97643.21;;;18.18;55.34
74334;BME280;62753;40.394;-80.022;2023-06-22T12:15:58;97640.46;;;18.64;52.58
74334;BME280;62753;40.394;-80.022;2023-06-22T12:18:23;97645.50;;;18.39;53.85
74334;BME280;62753;40.394;-80.022;2023-06-22T12:20:48;97646.34;;;18.70;53.94
74334;BME280;62753;40.394;-80.022;2023-06-22T12:23:15;97642.07;;;19.07;52.74
74334;BME280;62753;40.394;-80.022;2023-06-22T12:25:38;97641.99;;;19.21;52.08
74334;BME280;62753;40.394;-80.022;2023-06-22T12:28:04;97643.56;;;19.63;51.50
74334;BME280;62753;40.394;-80.022;2023-06-22T12:30:29;97640.92;;;18.97;52.26